createdAt,value
2022-08-25T00:01:32.174Z,22.40
2022-08-25T00:04:00.436Z,22.40
2022-08-25T00:06:28.988Z,22.40
2022-08-25T00:08:59.459Z,22.40
2022-08-25T00:11:29.033Z,22.20
2022-08-25T00:14:00.414Z,22.00
2022-08-25T00:16:31.311Z,22.00
2022-08-25T00:19:04.513Z,21.80
2022-08-25T00:21:31.818Z,21.90
2022-08-25T00:23:59.898Z,21.90
2022-08-25T00:26:27.736Z,21.70
2022-08-25T00:29:01.151Z,21.70
2022-08-25T00:31:37.660Z,21.70
2022-08-25T00:34:09.037Z,21.60
2022-08-25T00:36:35.754Z,21.40
2022-08-25T00:39:02.480Z,21.30
2022-08-25T00:41:29.497Z,21.30
2022-08-25T00:44:00.393Z,21.20
2022-08-25T00:46:36.954Z,21.20
2022-08-25T00:49:25.062Z,21.10
2022-08-25T00:52:16.371Z,21.00
2022-08-25T00:54:51.927Z,20.90
2022-08-25T00:57:34.900Z,20.80
2022-08-25T01:00:08.059Z,20.80
2022-08-25T01:02:34.757Z,20.70
2022-08-25T01:05:01.770Z,20.60
2022-08-25T01:07:28.638Z,20.50
2022-08-25T01:09:55.641Z,20.50
2022-08-25T01:12:22.686Z,20.60
2022-08-25T01:14:51.140Z,20.70
2022-08-25T01:17:18.141Z,20.80
2022-08-25T01:19:44.967Z,20.90
2022-08-25T01:22:12.273Z,21.00
2022-08-25T01:25:07.651Z,21.00
2022-08-25T01:27:34.307Z,21.00
2022-08-25T01:30:01.010Z,20.80
2022-08-25T01:32:27.660Z,20.70
2022-08-25T01:34:54.897Z,20.70
2022-08-25T01:37:21.557Z,20.70
2022-08-25T01:39:48.722Z,20.60
2022-08-25T01:42:49.135Z,20.70
2022-08-25T01:45:16.122Z,20.60
2022-08-25T01:47:42.788Z,20.40
2022-08-25T01:50:09.808Z,20.40
2022-08-25T01:52:51.871Z,20.30
2022-08-25T01:55:18.720Z,20.30
2022-08-25T01:57:46.221Z,20.20
2022-08-25T02:00:15.133Z,20.10
2022-08-25T02:02:42.727Z,20.00
2022-08-25T02:05:13.976Z,20.00
2022-08-25T02:07:42.363Z,19.90
2022-08-25T02:10:11.497Z,19.80
2022-08-25T02:12:38.354Z,19.70
2022-08-25T02:15:08.011Z,19.60
2022-08-25T02:17:36.598Z,19.50
2022-08-25T02:20:07.504Z,19.50
2022-08-25T02:22:34.222Z,19.40
2022-08-25T02:25:01.112Z,19.40
2022-08-25T02:27:28.315Z,19.40
2022-08-25T02:29:54.966Z,19.40
2022-08-25T02:32:21.651Z,19.40
2022-08-25T02:34:48.418Z,19.30
2022-08-25T02:37:15.238Z,19.30
2022-08-25T02:39:41.926Z,19.30
2022-08-25T02:42:08.677Z,19.30
2022-08-25T02:44:35.353Z,19.20
2022-08-25T02:47:03.026Z,19.20
2022-08-25T02:49:30.624Z,19.20
2022-08-25T02:51:58.641Z,19.20
2022-08-25T02:54:26.037Z,19.20
2022-08-25T02:56:52.898Z,19.20
2022-08-25T02:59:19.703Z,19.20
2022-08-25T03:01:46.381Z,19.20
2022-08-25T03:04:13.406Z,19.20
2022-08-25T03:06:40.778Z,19.20
2022-08-25T03:09:07.845Z,19.20
2022-08-25T03:11:34.961Z,19.20
2022-08-25T03:14:01.681Z,19.10
2022-08-25T03:16:28.427Z,19.10
2022-08-25T03:18:55.874Z,19.10
2022-08-25T03:21:22.857Z,19.00
2022-08-25T03:23:49.481Z,19.00
2022-08-25T03:26:35.582Z,18.90
2022-08-25T03:29:05.437Z,18.90
2022-08-25T03:31:33.711Z,18.90
2022-08-25T03:34:00.703Z,19.00
2022-08-25T03:36:27.751Z,19.00
2022-08-25T03:38:55.392Z,19.20
2022-08-25T03:41:27.745Z,19.30
2022-08-25T03:43:55.624Z,19.40
2022-08-25T03:46:26.254Z,19.50
2022-08-25T03:48:53.678Z,19.40
2022-08-25T03:51:23.133Z,19.40
2022-08-25T03:53:52.111Z,19.40
2022-08-25T03:56:19.087Z,19.50
2022-08-25T03:58:46.489Z,19.40
2022-08-25T04:01:13.546Z,19.30
2022-08-25T04:03:42.166Z,19.30
2022-08-25T04:06:09.874Z,19.20
2022-08-25T04:08:37.119Z,19.20
2022-08-25T04:11:18.706Z,19.30
2022-08-25T04:13:46.640Z,19.20
2022-08-25T04:16:22.326Z,19.30
2022-08-25T04:18:50.747Z,19.40
2022-08-25T04:21:19.100Z,19.30
2022-08-25T04:23:47.855Z,19.40
2022-08-25T04:26:19.254Z,19.40
2022-08-25T04:28:46.862Z,19.40
2022-08-25T04:31:15.301Z,19.40
2022-08-25T04:33:42.321Z,19.40
2022-08-25T04:36:12.470Z,19.40
2022-08-25T04:38:40.698Z,19.30
2022-08-25T04:41:11.091Z,19.30
2022-08-25T04:43:39.558Z,19.30
2022-08-25T04:46:09.082Z,19.20
2022-08-25T04:48:36.123Z,19.10
2022-08-25T04:51:07.583Z,19.10
2022-08-25T04:53:35.101Z,19.10
2022-08-25T04:56:04.036Z,19.20
2022-08-25T04:58:30.931Z,19.20
2022-08-25T05:01:06.454Z,19.30
2022-08-25T05:03:33.310Z,19.40
2022-08-25T05:06:00.467Z,19.30
2022-08-25T05:08:27.234Z,19.30
2022-08-25T05:10:56.507Z,19.40
2022-08-25T05:13:25.567Z,19.50
2022-08-25T05:15:58.345Z,19.50
2022-08-25T05:18:29.802Z,19.50
2022-08-25T05:20:57.378Z,19.50
2022-08-25T05:23:25.340Z,19.50
2022-08-25T05:25:52.790Z,19.60
2022-08-25T05:28:20.581Z,19.50
2022-08-25T05:30:49.461Z,19.60
2022-08-25T05:33:18.326Z,19.70
2022-08-25T05:35:45.058Z,19.80
2022-08-25T05:38:15.441Z,19.80
2022-08-25T05:40:42.570Z,19.80
2022-08-25T05:43:10.266Z,19.90
2022-08-25T05:45:37.177Z,20.00
2022-08-25T05:48:04.025Z,20.00
2022-08-25T05:50:30.814Z,20.00
2022-08-25T05:52:57.502Z,20.10
2022-08-25T05:55:24.590Z,20.10
2022-08-25T05:57:51.265Z,20.20
2022-08-25T06:00:18.841Z,20.30
2022-08-25T06:02:46.671Z,20.40
2022-08-25T06:05:21.891Z,20.40
2022-08-25T06:07:50.883Z,20.50
2022-08-25T06:10:20.086Z,20.60
2022-08-25T06:12:47.429Z,20.70
2022-08-25T06:15:21.966Z,20.80
2022-08-25T06:17:49.800Z,20.90
2022-08-25T06:20:22.200Z,20.90
2022-08-25T06:22:53.046Z,21.00
2022-08-25T06:25:22.398Z,21.10
2022-08-25T06:27:49.790Z,21.20
2022-08-25T06:30:23.735Z,21.40
2022-08-25T06:32:51.920Z,21.60
2022-08-25T06:35:20.128Z,21.80
2022-08-25T06:37:47.455Z,21.90
2022-08-25T06:40:16.343Z,22.00
2022-08-25T06:42:47.992Z,22.20
2022-08-25T06:45:15.159Z,22.40
2022-08-25T06:47:42.739Z,22.60
2022-08-25T06:50:12.196Z,22.70
2022-08-25T06:52:38.932Z,23.00
2022-08-25T06:55:06.695Z,23.30
2022-08-25T06:57:35.671Z,23.40
2022-08-25T07:00:05.701Z,23.60
2022-08-25T07:02:33.172Z,23.90
2022-08-25T07:05:02.823Z,24.10
2022-08-25T07:07:42.909Z,24.30
2022-08-25T07:10:11.245Z,24.70
2022-08-25T07:12:37.919Z,24.90
2022-08-25T07:15:21.223Z,25.10
2022-08-25T07:17:49.084Z,25.30
2022-08-25T07:20:19.266Z,25.50
2022-08-25T07:22:46.616Z,25.80
2022-08-25T07:25:13.692Z,26.00
2022-08-25T07:27:42.401Z,26.10
2022-08-25T07:30:11.249Z,26.20
2022-08-25T07:32:41.971Z,26.30
2022-08-25T07:35:19.136Z,26.50
2022-08-25T07:37:57.887Z,26.70
2022-08-25T07:40:30.042Z,26.80
2022-08-25T07:42:58.828Z,26.90
2022-08-25T07:45:31.836Z,27.00
2022-08-25T07:48:01.725Z,27.20
2022-08-25T07:50:29.874Z,27.20
2022-08-25T07:52:57.867Z,27.50
2022-08-25T07:55:26.479Z,27.60
2022-08-25T07:58:10.990Z,27.50
2022-08-25T08:00:39.349Z,27.60
2022-08-25T08:03:10.053Z,27.80
2022-08-25T08:05:42.838Z,28.00
2022-08-25T08:08:09.686Z,28.20
2022-08-25T08:11:03.183Z,28.20
2022-08-25T08:13:26.721Z,28.30
2022-08-25T08:15:53.566Z,28.30
2022-08-25T08:18:20.232Z,28.40
2022-08-25T08:20:49.100Z,28.60
2022-08-25T08:23:17.085Z,28.50
2022-08-25T08:25:44.328Z,28.80
2022-08-25T08:28:14.271Z,28.90
2022-08-25T08:30:52.913Z,29.10
2022-08-25T08:33:21.490Z,29.30
2022-08-25T08:35:48.307Z,29.50
2022-08-25T08:38:20.843Z,29.60
2022-08-25T08:41:23.855Z,29.70
2022-08-25T08:43:59.019Z,29.80
2022-08-25T08:46:33.767Z,29.90
2022-08-25T08:49:02.148Z,29.90
2022-08-25T08:51:38.468Z,30.10
2022-08-25T08:54:18.537Z,30.00
2022-08-25T08:56:49.293Z,30.00
2022-08-25T08:59:21.616Z,30.00
2022-08-25T09:01:56.491Z,30.40
2022-08-25T09:04:32.969Z,30.70
2022-08-25T09:07:02.619Z,30.80
2022-08-25T09:09:35.819Z,31.00
2022-08-25T09:12:41.672Z,30.90
2022-08-25T09:15:54.723Z,31.00
2022-08-25T09:18:40.367Z,31.20
2022-08-25T09:21:18.424Z,31.50
2022-08-25T09:24:06.314Z,31.50
2022-08-25T09:26:39.777Z,31.60
2022-08-25T09:29:27.627Z,31.70
2022-08-25T09:31:59.426Z,31.70
2022-08-25T09:34:33.373Z,31.70
2022-08-25T09:37:01.035Z,31.70
2022-08-25T09:39:28.096Z,31.80
2022-08-25T09:42:00.186Z,32.00
2022-08-25T09:44:39.206Z,32.30
2022-08-25T09:47:19.925Z,32.20
2022-08-25T09:49:49.810Z,32.10
2022-08-25T09:52:28.415Z,32.10
2022-08-25T09:54:56.864Z,32.10
2022-08-25T09:57:34.834Z,32.10
2022-08-25T10:00:10.719Z,32.20
2022-08-25T10:02:37.606Z,32.30
2022-08-25T10:05:23.386Z,32.40
2022-08-25T10:07:57.701Z,32.70
2022-08-25T10:10:38.194Z,32.90
2022-08-25T10:13:22.924Z,32.90
2022-08-25T10:16:24.876Z,33.10
2022-08-25T10:19:09.960Z,33.20
2022-08-25T10:21:39.944Z,33.50
2022-08-25T10:24:09.962Z,33.60
2022-08-25T10:26:48.546Z,33.60
2022-08-25T10:29:38.790Z,33.50
2022-08-25T10:32:21.858Z,33.50
2022-08-25T10:34:58.354Z,33.60
2022-08-25T10:37:41.721Z,33.50
2022-08-25T10:40:16.434Z,33.60
2022-08-25T10:42:54.593Z,33.80
2022-08-25T10:45:45.257Z,34.00
2022-08-25T10:48:38.348Z,33.90
2022-08-25T10:51:25.307Z,33.70
2022-08-25T10:54:16.599Z,33.60
2022-08-25T10:57:12.582Z,34.00
2022-08-25T10:59:49.908Z,34.50
2022-08-25T11:02:53.121Z,34.90
2022-08-25T11:05:31.817Z,35.30
2022-08-25T11:08:10.403Z,35.00
2022-08-25T11:10:50.358Z,34.90
2022-08-25T11:13:29.864Z,34.70
2022-08-25T11:16:17.018Z,34.80
2022-08-25T11:18:54.081Z,34.80
2022-08-25T11:21:28.995Z,34.60
2022-08-25T11:24:09.110Z,34.50
2022-08-25T11:26:41.203Z,34.40
2022-08-25T11:29:17.955Z,34.40
2022-08-25T11:31:54.036Z,34.60
2022-08-25T11:34:22.159Z,34.50
2022-08-25T11:37:01.041Z,34.70
2022-08-25T11:40:18.161Z,34.90
2022-08-25T11:43:20.580Z,34.80
2022-08-25T11:46:26.150Z,34.90
2022-08-25T11:49:26.376Z,35.10
2022-08-25T11:51:53.493Z,35.40
2022-08-25T11:54:24.888Z,35.40
2022-08-25T11:57:17.789Z,35.30
2022-08-25T11:59:57.245Z,35.60
2022-08-25T12:02:33.046Z,35.80
2022-08-25T12:05:00.197Z,35.80
2022-08-25T12:08:13.324Z,35.70
2022-08-25T12:11:10.617Z,35.70
2022-08-25T12:13:42.677Z,35.50
2022-08-25T12:16:36.101Z,35.60
2022-08-25T12:19:28.671Z,35.50
2022-08-25T12:22:03.382Z,35.50
2022-08-25T12:24:47.546Z,35.60
2022-08-25T12:27:45.750Z,35.60
2022-08-25T12:30:18.580Z,35.60
2022-08-25T12:33:00.781Z,35.90
2022-08-25T12:35:50.497Z,36.10
2022-08-25T12:38:28.194Z,36.10
2022-08-25T12:41:07.320Z,36.20
2022-08-25T12:43:37.871Z,36.40
2022-08-25T12:46:23.072Z,36.40
2022-08-25T12:49:12.003Z,36.20
2022-08-25T12:52:00.360Z,36.00
2022-08-25T12:54:44.116Z,36.00
2022-08-25T12:57:29.545Z,35.70
2022-08-25T12:59:59.377Z,35.40
2022-08-25T13:02:40.194Z,35.50
2022-08-25T13:05:38.364Z,35.70
2022-08-25T13:08:20.986Z,35.70
2022-08-25T13:11:16.869Z,35.80
2022-08-25T13:14:07.711Z,35.80
2022-08-25T13:16:37.212Z,35.70
2022-08-25T13:19:06.796Z,35.90
2022-08-25T13:21:38.830Z,36.10
2022-08-25T13:24:09.462Z,36.30
2022-08-25T13:26:47.110Z,36.50
2022-08-25T13:29:25.140Z,36.70
2022-08-25T13:31:54.897Z,36.60
2022-08-25T13:34:34.589Z,36.60
2022-08-25T13:37:29.578Z,36.50
2022-08-25T13:40:29.706Z,36.30
2022-08-25T13:43:01.134Z,36.20
2022-08-25T13:45:31.716Z,36.20
2022-08-25T13:47:59.153Z,36.20
2022-08-25T13:50:26.473Z,36.30
2022-08-25T13:52:57.578Z,36.40
2022-08-25T13:55:50.842Z,36.60
2022-08-25T13:58:32.500Z,36.80
2022-08-25T14:01:47.665Z,36.70
2022-08-25T14:04:39.484Z,36.80
2022-08-25T14:07:20.898Z,36.90
2022-08-25T14:09:58.074Z,36.90
2022-08-25T14:12:45.400Z,36.90
2022-08-25T14:15:18.510Z,36.50
2022-08-25T14:17:49.515Z,36.50
2022-08-25T14:20:29.134Z,36.60
2022-08-25T14:22:59.283Z,36.90
2022-08-25T14:25:27.773Z,36.60
2022-08-25T14:28:08.259Z,36.40
2022-08-25T14:30:38.988Z,36.20
2022-08-25T14:33:07.011Z,36.10
2022-08-25T14:35:34.429Z,35.80
2022-08-25T14:38:08.386Z,35.50
2022-08-25T14:40:35.375Z,35.40
2022-08-25T14:43:02.273Z,35.50
2022-08-25T14:45:31.094Z,35.50
2022-08-25T14:48:04.263Z,35.60
2022-08-25T14:50:38.216Z,35.70
2022-08-25T14:53:11.322Z,36.00
2022-08-25T14:55:39.688Z,36.30
2022-08-25T14:58:07.069Z,36.40
2022-08-25T15:00:37.325Z,36.40
2022-08-25T15:03:04.204Z,36.30
2022-08-25T15:05:31.845Z,35.90
2022-08-25T15:08:17.265Z,35.60
2022-08-25T15:10:44.450Z,35.40
2022-08-25T15:13:11.279Z,35.00
2022-08-25T15:15:52.963Z,34.90
2022-08-25T15:18:21.688Z,34.90
2022-08-25T15:20:50.120Z,34.80
2022-08-25T15:23:18.767Z,34.50
2022-08-25T15:25:52.893Z,34.50
2022-08-25T15:28:22.272Z,34.60
2022-08-25T15:30:49.961Z,34.60
2022-08-25T15:33:17.363Z,34.60
2022-08-25T15:35:44.278Z,34.40
2022-08-25T15:38:12.593Z,34.40
2022-08-25T15:40:39.376Z,34.40
2022-08-25T15:43:06.943Z,34.30
2022-08-25T15:45:36.001Z,34.40
2022-08-25T15:48:04.280Z,34.40
2022-08-25T15:50:33.622Z,34.50
2022-08-25T15:53:00.887Z,34.40
2022-08-25T15:55:27.860Z,34.50
2022-08-25T15:57:55.810Z,34.40
2022-08-25T16:00:22.890Z,34.30
2022-08-25T16:02:50.414Z,34.40
2022-08-25T16:05:17.986Z,34.40
2022-08-25T16:07:51.680Z,34.40
2022-08-25T16:10:19.232Z,34.40
2022-08-25T16:12:48.501Z,34.20
2022-08-25T16:15:15.985Z,34.10
2022-08-25T16:17:45.972Z,34.00
2022-08-25T16:20:17.097Z,34.10
2022-08-25T16:22:44.786Z,34.00
2022-08-25T16:25:12.115Z,34.10
2022-08-25T16:27:39.289Z,34.10
2022-08-25T16:30:17.412Z,34.10
2022-08-25T16:32:45.291Z,34.30
2022-08-25T16:35:13.255Z,34.10
2022-08-25T16:37:40.594Z,34.00
2022-08-25T16:40:13.301Z,34.00
2022-08-25T16:42:41.931Z,34.00
2022-08-25T16:45:09.040Z,33.90
2022-08-25T16:47:38.052Z,33.90
2022-08-25T16:50:09.177Z,33.90
2022-08-25T16:52:56.110Z,33.70
2022-08-25T16:55:25.657Z,33.70
2022-08-25T16:57:54.132Z,33.70
2022-08-25T17:00:25.807Z,33.60
2022-08-25T17:02:59.291Z,33.60
2022-08-25T17:05:28.197Z,33.60
2022-08-25T17:08:14.922Z,33.60
2022-08-25T17:10:43.422Z,33.60
2022-08-25T17:13:10.840Z,33.40
2022-08-25T17:15:43.418Z,33.30
2022-08-25T17:18:12.672Z,33.20
2022-08-25T17:20:41.100Z,33.00
2022-08-25T17:23:12.418Z,32.80
2022-08-25T17:25:42.895Z,32.80
2022-08-25T17:28:12.205Z,32.70
2022-08-25T17:30:40.091Z,32.60
2022-08-25T17:33:06.815Z,32.60
2022-08-25T17:35:42.758Z,32.60
2022-08-25T17:38:11.220Z,32.50
2022-08-25T17:40:38.719Z,32.40
2022-08-25T17:43:05.907Z,32.40
2022-08-25T17:45:36.262Z,32.30
2022-08-25T17:48:04.057Z,32.20
2022-08-25T17:50:31.584Z,32.20
2022-08-25T17:53:00.978Z,32.10
2022-08-25T17:55:27.670Z,32.00
2022-08-25T17:57:54.312Z,31.90
2022-08-25T18:00:22.662Z,31.80
2022-08-25T18:02:50.763Z,31.80
2022-08-25T18:05:18.145Z,31.70
2022-08-25T18:07:45.047Z,31.50
2022-08-25T18:10:12.608Z,31.40
2022-08-25T18:12:39.403Z,31.20
2022-08-25T18:15:08.176Z,31.10
2022-08-25T18:17:36.366Z,30.90
2022-08-25T18:20:08.568Z,30.70
2022-08-25T18:22:36.020Z,30.50
2022-08-25T18:25:06.756Z,30.40
2022-08-25T18:27:34.570Z,30.20
2022-08-25T18:30:02.016Z,30.00
2022-08-25T18:32:29.310Z,29.90
2022-08-25T18:34:56.893Z,29.70
2022-08-25T18:37:42.798Z,29.60
2022-08-25T18:40:25.559Z,29.50
2022-08-25T18:43:01.960Z,29.30
2022-08-25T18:45:33.340Z,29.10
2022-08-25T18:48:00.682Z,28.90
2022-08-25T18:50:32.653Z,28.80
2022-08-25T18:53:00.294Z,28.70
2022-08-25T18:55:28.173Z,28.60
2022-08-25T18:57:55.798Z,28.40
2022-08-25T19:00:26.597Z,28.20
2022-08-25T19:02:55.937Z,28.20
2022-08-25T19:05:34.122Z,28.10
2022-08-25T19:08:03.729Z,27.90
2022-08-25T19:10:31.318Z,27.80
2022-08-25T19:12:59.217Z,27.70
2022-08-25T19:15:35.650Z,27.50
2022-08-25T19:18:04.241Z,27.40
2022-08-25T19:20:34.494Z,27.30
2022-08-25T19:23:02.052Z,27.10
2022-08-25T19:25:33.149Z,27.00
2022-08-25T19:28:01.684Z,26.90
2022-08-25T19:30:30.031Z,26.80
2022-08-25T19:32:57.602Z,26.70
2022-08-25T19:35:32.093Z,26.60
2022-08-25T19:38:00.301Z,26.60
2022-08-25T19:40:29.079Z,26.50
2022-08-25T19:42:55.917Z,26.40
2022-08-25T19:45:23.622Z,26.30
2022-08-25T19:47:50.645Z,26.20
2022-08-25T19:50:18.294Z,26.00
2022-08-25T19:52:46.931Z,26.00
2022-08-25T19:55:17.218Z,25.90
2022-08-25T19:57:44.334Z,25.80
2022-08-25T20:00:17.442Z,25.70
2022-08-25T20:02:44.709Z,25.60
2022-08-25T20:05:12.213Z,25.50
2022-08-25T20:07:39.082Z,25.40
2022-08-25T20:10:08.748Z,25.30
2022-08-25T20:12:41.710Z,25.40
2022-08-25T20:15:09.783Z,25.30
2022-08-25T20:17:36.529Z,25.30
2022-08-25T20:20:11.270Z,25.30
2022-08-25T20:22:38.153Z,25.20
2022-08-25T20:25:15.217Z,25.10
2022-08-25T20:27:48.048Z,25.10
2022-08-25T20:30:27.841Z,25.00
2022-08-25T20:32:57.514Z,24.90
2022-08-25T20:35:27.317Z,24.80
2022-08-25T20:37:55.937Z,24.70
2022-08-25T20:40:25.550Z,24.50
2022-08-25T20:42:53.383Z,24.50
2022-08-25T20:45:21.781Z,24.40
2022-08-25T20:47:49.939Z,24.30
2022-08-25T20:50:18.152Z,24.30
2022-08-25T20:52:45.200Z,24.20
2022-08-25T20:55:12.282Z,24.20
2022-08-25T20:57:39.423Z,24.20
2022-08-25T21:00:09.063Z,24.10
2022-08-25T21:02:36.541Z,24.00
2022-08-25T21:05:04.653Z,24.00
2022-08-25T21:07:31.824Z,23.90
2022-08-25T21:10:05.268Z,23.90
2022-08-25T21:12:32.133Z,23.90
2022-08-25T21:14:58.810Z,23.80
2022-08-25T21:17:25.497Z,23.80
2022-08-25T21:19:52.193Z,23.70
2022-08-25T21:22:19.276Z,23.70
2022-08-25T21:24:46.117Z,23.60
2022-08-25T21:27:13.168Z,23.60
2022-08-25T21:29:44.385Z,23.50
2022-08-25T21:32:11.684Z,23.50
2022-08-25T21:34:38.599Z,23.40
2022-08-25T21:37:05.448Z,23.40
2022-08-25T21:39:33.373Z,23.40
2022-08-25T21:42:00.677Z,23.30
2022-08-25T21:44:29.834Z,23.30
2022-08-25T21:46:56.977Z,23.20
2022-08-25T21:49:24.249Z,23.10
2022-08-25T21:52:00.417Z,23.10
2022-08-25T21:54:28.729Z,23.00
2022-08-25T21:56:59.372Z,22.90
2022-08-25T21:59:37.614Z,22.90
2022-08-25T22:02:10.124Z,22.80
2022-08-25T22:04:38.899Z,22.80
2022-08-25T22:07:06.903Z,22.70
2022-08-25T22:09:35.280Z,22.70
2022-08-25T22:12:02.219Z,22.60
2022-08-25T22:14:29.127Z,22.60
2022-08-25T22:16:55.972Z,22.50
2022-08-25T22:19:23.175Z,22.40
2022-08-25T22:21:52.829Z,22.40
2022-08-25T22:24:20.715Z,22.30
2022-08-25T22:26:49.144Z,22.30
2022-08-25T22:29:25.464Z,22.20
2022-08-25T22:32:02.027Z,22.20
2022-08-25T22:34:33.075Z,22.20
2022-08-25T22:37:04.994Z,22.10
2022-08-25T22:39:34.442Z,22.10
2022-08-25T22:42:01.905Z,22.10
2022-08-25T22:44:28.837Z,22.00
2022-08-25T22:46:55.570Z,22.00
2022-08-25T22:49:23.584Z,21.90
2022-08-25T22:51:50.874Z,21.90
2022-08-25T22:54:18.037Z,21.80
2022-08-25T22:56:44.833Z,21.80
2022-08-25T22:59:13.536Z,21.80
2022-08-25T23:01:40.990Z,21.80
2022-08-25T23:04:07.901Z,21.80
2022-08-25T23:06:34.833Z,21.90
2022-08-25T23:09:04.399Z,22.00
2022-08-25T23:11:31.318Z,22.10
2022-08-25T23:14:00.460Z,22.10
2022-08-25T23:16:28.594Z,22.20
2022-08-25T23:18:55.491Z,22.20
2022-08-25T23:21:42.423Z,22.20
2022-08-25T23:24:11.097Z,22.30
2022-08-25T23:26:42.564Z,22.30
2022-08-25T23:29:18.504Z,22.30
2022-08-25T23:31:47.776Z,22.30
2022-08-25T23:34:16.128Z,22.20
2022-08-25T23:36:43.924Z,22.20
2022-08-25T23:39:11.327Z,22.20
2022-08-25T23:41:38.729Z,22.10
2022-08-25T23:44:06.353Z,22.20
2022-08-25T23:46:36.716Z,22.20
2022-08-25T23:49:05.216Z,22.20
2022-08-25T23:51:38.187Z,22.10
2022-08-25T23:54:09.553Z,22.10
2022-08-25T23:56:42.276Z,22.10
2022-08-25T23:59:11.448Z,22.10
